sensor_id;sensor_type;location;lat;lon;timestamp;pressure;altitude;pressure_sealevel;temperature;humidity
75788;BME280;64406;50.024;14.492;2022-10-23T00:00:31;98330.88;;;10.01;84.90
75788;BME280;64406;50.024;14.492;2022-10-23T00:03:17;98332.25;;;9.93;85.66
75788;BME280;64406;50.024;14.492;2022-10-23T00:05:42;98333.88;;;9.79;85.60
75788;BME280;64406;50.024;14.492;2022-10-23T00:08:08;98331.44;;;9.93;85.61
75788;BME280;64406;50.024;14.492;2022-10-23T00:10:34;98336.03;;;9.87;85.95
75788;BME280;64406;50.024;14.492;2022-10-23T00:13:00;98336.03;;;9.92;85.89
75788;BME280;64406;50.024;14.492;2022-10-23T00:15:25;98335.47;;;9.90;85.84
75788;BME280;64406;50.024;14.492;2022-10-23T00:17:52;98332.25;;;9.83;85.65
75788;BME280;64406;50.024;14.492;2022-10-23T00:20:17;98349.47;;;9.82;86.26
75788;BME280;64406;50.024;14.492;2022-10-23T00:22:43;98337.63;;;9.83;85.60
75788;BME280;64406;50.024;14.492;2022-10-23T00:25:09;98341.69;;;9.80;86.26
75788;BME280;64406;50.024;14.492;2022-10-23T00:27:36;98338.44;;;9.84;86.57
75788;BME280;64406;50.024;14.492;2022-10-23T00:30:03;98333.34;;;9.77;85.82
75788;BME280;64406;50.024;14.492;2022-10-23T00:32:29;98330.66;;;9.72;86.40
75788;BME280;64406;50.024;14.492;2022-10-23T00:34:55;98334.69;;;9.69;86.08
75788;BME280;64406;50.024;14.492;2022-10-23T00:37:20;98331.19;;;9.64;86.15
75788;BME280;64406;50.024;14.492;2022-10-23T00:39:46;98329.31;;;9.69;86.32
75788;BME280;64406;50.024;14.492;2022-10-23T00:42:16;98329.59;;;9.68;86.30
75788;BME280;64406;50.024;14.492;2022-10-23T00:47:09;98322.03;;;9.70;86.71
75788;BME280;64406;50.024;14.492;2022-10-23T00:49:35;98319.88;;;9.77;87.06
75788;BME280;64406;50.024;14.492;2022-10-23T00:52:06;98330.66;;;9.77;86.74
75788;BME280;64406;50.024;14.492;2022-10-23T00:54:40;98321.25;;;9.79;86.19
75788;BME280;64406;50.024;14.492;2022-10-23T00:57:11;98324.47;;;9.76;86.14
75788;BME280;64406;50.024;14.492;2022-10-23T00:59:37;98327.16;;;9.66;86.56
75788;BME280;64406;50.024;14.492;2022-10-23T01:02:03;98321.78;;;9.66;86.52
75788;BME280;64406;50.024;14.492;2022-10-23T01:04:29;98330.38;;;9.68;86.88
75788;BME280;64406;50.024;14.492;2022-10-23T01:07:04;98330.38;;;9.68;86.19
75788;BME280;64406;50.024;14.492;2022-10-23T01:09:44;98334.44;;;9.71;86.68
75788;BME280;64406;50.024;14.492;2022-10-23T01:12:39;98327.19;;;9.71;86.29
75788;BME280;64406;50.024;14.492;2022-10-23T01:15:15;98326.38;;;9.71;86.42
75788;BME280;64406;50.024;14.492;2022-10-23T01:28:18;98339.00;;;9.50;87.05
75788;BME280;64406;50.024;14.492;2022-10-23T01:30:47;98346.00;;;9.46;87.17
75788;BME280;64406;50.024;14.492;2022-10-23T01:33:17;98340.34;;;9.42;87.42
75788;BME280;64406;50.024;14.492;2022-10-23T01:35:52;98331.75;;;9.40;86.64
75788;BME280;64406;50.024;14.492;2022-10-23T01:38:36;98341.13;;;9.43;87.25
75788;BME280;64406;50.024;14.492;2022-10-23T01:41:10;98340.34;;;9.42;87.02
75788;BME280;64406;50.024;14.492;2022-10-23T01:43:52;98339.53;;;9.37;87.12
75788;BME280;64406;50.024;14.492;2022-10-23T01:46:19;98346.25;;;9.34;86.72
75788;BME280;64406;50.024;14.492;2022-10-23T01:48:52;98336.31;;;9.40;87.03
75788;BME280;64406;50.024;14.492;2022-10-23T01:51:19;98337.66;;;9.42;87.25
75788;BME280;64406;50.024;14.492;2022-10-23T01:53:47;98334.41;;;9.35;87.36
75788;BME280;64406;50.024;14.492;2022-10-23T01:56:19;98336.03;;;9.36;87.29
75788;BME280;64406;50.024;14.492;2022-10-23T01:58:48;98332.81;;;9.39;87.07
75788;BME280;64406;50.024;14.492;2022-10-23T02:01:17;98331.22;;;9.38;87.43
75788;BME280;64406;50.024;14.492;2022-10-23T02:03:45;98325.28;;;9.36;87.16
75788;BME280;64406;50.024;14.492;2022-10-23T02:06:11;98326.63;;;9.39;87.29
75788;BME280;64406;50.024;14.492;2022-10-23T02:08:37;98325.28;;;9.41;87.38
75788;BME280;64406;50.024;14.492;2022-10-23T02:11:07;98335.25;;;9.46;87.53
75788;BME280;64406;50.024;14.492;2022-10-23T02:13:45;98325.28;;;9.46;87.28
75788;BME280;64406;50.024;14.492;2022-10-23T02:16:31;98322.06;;;9.39;87.21
75788;BME280;64406;50.024;14.492;2022-10-23T02:22:15;98324.75;;;9.44;87.28
75788;BME280;64406;50.024;14.492;2022-10-23T02:24:55;98326.38;;;9.40;87.10
75788;BME280;64406;50.024;14.492;2022-10-23T02:27:36;98327.44;;;9.44;87.20
75788;BME280;64406;50.024;14.492;2022-10-23T02:30:07;98319.91;;;9.46;87.46
75788;BME280;64406;50.024;14.492;2022-10-23T02:32:35;98324.50;;;9.51;86.79
75788;BME280;64406;50.024;14.492;2022-10-23T02:35:03;98316.97;;;9.53;86.74
75788;BME280;64406;50.024;14.492;2022-10-23T02:37:29;98321.53;;;9.58;86.27
75788;BME280;64406;50.024;14.492;2022-10-23T02:39:54;98314.81;;;9.60;85.95
75788;BME280;64406;50.024;14.492;2022-10-23T02:42:29;98321.25;;;9.49;86.68
75788;BME280;64406;50.024;14.492;2022-10-23T02:45:18;98315.59;;;9.56;86.49
75788;BME280;64406;50.024;14.492;2022-10-23T02:53:24;98313.47;;;9.58;86.09
75788;BME280;64406;50.024;14.492;2022-10-23T02:58:58;98314.25;;;9.48;86.31
75788;BME280;64406;50.024;14.492;2022-10-23T03:01:34;98310.50;;;9.39;86.26
75788;BME280;64406;50.024;14.492;2022-10-23T03:04:05;98310.50;;;9.29;86.78
75788;BME280;64406;50.024;14.492;2022-10-23T03:06:31;98321.78;;;9.20;86.88
75788;BME280;64406;50.024;14.492;2022-10-23T03:08:58;98321.22;;;9.23;86.37
75788;BME280;64406;50.024;14.492;2022-10-23T03:11:25;98319.06;;;9.15;86.86
75788;BME280;64406;50.024;14.492;2022-10-23T03:13:51;98322.84;;;9.14;86.94
75788;BME280;64406;50.024;14.492;2022-10-23T03:16:16;98322.56;;;9.06;87.08
75788;BME280;64406;50.024;14.492;2022-10-23T03:18:42;98322.81;;;8.99;86.92
75788;BME280;64406;50.024;14.492;2022-10-23T03:21:07;98312.84;;;8.89;86.88
75788;BME280;64406;50.024;14.492;2022-10-23T03:23:33;98319.59;;;9.02;86.85
75788;BME280;64406;50.024;14.492;2022-10-23T03:25:59;98321.19;;;9.03;86.66
75788;BME280;64406;50.024;14.492;2022-10-23T03:28:24;98322.81;;;8.99;86.31
75788;BME280;64406;50.024;14.492;2022-10-23T03:30:50;98330.06;;;9.04;87.00
75788;BME280;64406;50.024;14.492;2022-10-23T03:33:16;98322.81;;;8.99;86.82
75788;BME280;64406;50.024;14.492;2022-10-23T03:35:42;98319.84;;;8.95;86.79
75788;BME280;64406;50.024;14.492;2022-10-23T03:38:07;98311.53;;;8.92;86.73
75788;BME280;64406;50.024;14.492;2022-10-23T03:40:33;98310.16;;;8.84;86.82
75788;BME280;64406;50.024;14.492;2022-10-23T03:42:59;98300.50;;;8.78;86.39
75788;BME280;64406;50.024;14.492;2022-10-23T03:45:24;98314.44;;;8.75;86.60
75788;BME280;64406;50.024;14.492;2022-10-23T03:47:50;98310.66;;;8.71;87.03
75788;BME280;64406;50.024;14.492;2022-10-23T03:50:17;98303.41;;;8.77;86.48
75788;BME280;64406;50.024;14.492;2022-10-23T03:52:43;98314.16;;;8.77;87.18
75788;BME280;64406;50.024;14.492;2022-10-23T03:55:09;98314.44;;;8.80;86.23
75788;BME280;64406;50.024;14.492;2022-10-23T03:57:35;98315.78;;;8.73;86.88
75788;BME280;64406;50.024;14.492;2022-10-23T04:00:01;98317.91;;;8.70;87.35
75788;BME280;64406;50.024;14.492;2022-10-23T04:02:26;98328.66;;;8.65;87.17
75788;BME280;64406;50.024;14.492;2022-10-23T04:04:52;98323.00;;;8.67;87.11
75788;BME280;64406;50.024;14.492;2022-10-23T04:07:18;98320.59;;;8.65;87.12
75788;BME280;64406;50.024;14.492;2022-10-23T04:09:43;98309.31;;;8.68;87.30
75788;BME280;64406;50.024;14.492;2022-10-23T04:12:09;98322.72;;;8.63;86.83
75788;BME280;64406;50.024;14.492;2022-10-23T04:14:34;98312.25;;;8.67;86.78
75788;BME280;64406;50.024;14.492;2022-10-23T04:17:00;98303.16;;;8.73;86.48
75788;BME280;64406;50.024;14.492;2022-10-23T04:19:26;98310.91;;;8.69;86.08
75788;BME280;64406;50.024;14.492;2022-10-23T04:21:51;98307.97;;;8.66;86.16
75788;BME280;64406;50.024;14.492;2022-10-23T04:24:17;98293.47;;;8.67;85.88
75788;BME280;64406;50.024;14.492;2022-10-23T04:26:42;98289.16;;;8.61;86.71
75788;BME280;64406;50.024;14.492;2022-10-23T04:29:08;98292.38;;;8.63;86.41
75788;BME280;64406;50.024;14.492;2022-10-23T04:31:33;98294.53;;;8.61;86.30
75788;BME280;64406;50.024;14.492;2022-10-23T04:33:59;98296.41;;;8.65;86.25
75788;BME280;64406;50.024;14.492;2022-10-23T04:36:24;98295.31;;;8.61;86.00
75788;BME280;64406;50.024;14.492;2022-10-23T04:38:50;98298.53;;;8.58;86.05
75788;BME280;64406;50.024;14.492;2022-10-23T04:41:15;98302.53;;;8.51;85.71
75788;BME280;64406;50.024;14.492;2022-10-23T04:43:41;98309.00;;;8.55;86.49
75788;BME280;64406;50.024;14.492;2022-10-23T04:46:07;98291.78;;;8.51;86.79
75788;BME280;64406;50.024;14.492;2022-10-23T04:48:32;98287.47;;;8.44;86.71
75788;BME280;64406;50.024;14.492;2022-10-23T04:51:00;98293.94;;;8.49;86.33
75788;BME280;64406;50.024;14.492;2022-10-23T04:53:27;98288.31;;;8.50;86.89
75788;BME280;64406;50.024;14.492;2022-10-23T04:55:54;98285.09;;;8.53;86.45
75788;BME280;64406;50.024;14.492;2022-10-23T04:58:20;98288.53;;;8.43;86.06
75788;BME280;64406;50.024;14.492;2022-10-23T05:00:47;98283.47;;;8.47;85.80
75788;BME280;64406;50.024;14.492;2022-10-23T05:03:14;98291.53;;;8.47;86.03
75788;BME280;64406;50.024;14.492;2022-10-23T05:05:40;98280.78;;;8.47;85.59
75788;BME280;64406;50.024;14.492;2022-10-23T05:08:06;98292.84;;;8.39;85.62
75788;BME280;64406;50.024;14.492;2022-10-23T05:10:31;98290.16;;;8.39;85.34
75788;BME280;64406;50.024;14.492;2022-10-23T05:12:57;98286.09;;;8.37;85.71
75788;BME280;64406;50.024;14.492;2022-10-23T05:15:23;98286.38;;;8.35;85.42
75788;BME280;64406;50.024;14.492;2022-10-23T05:17:51;98294.72;;;8.39;85.26
75788;BME280;64406;50.024;14.492;2022-10-23T05:20:23;98293.09;;;8.38;84.99
75788;BME280;64406;50.024;14.492;2022-10-23T05:22:50;98302.97;;;8.32;85.26
75788;BME280;64406;50.024;14.492;2022-10-23T05:25:18;98291.16;;;8.28;85.77
75788;BME280;64406;50.024;14.492;2022-10-23T05:27:43;98295.72;;;8.28;85.30
75788;BME280;64406;50.024;14.492;2022-10-23T05:30:10;98293.25;;;8.21;85.75
75788;BME280;64406;50.024;14.492;2022-10-23T05:32:36;98297.00;;;8.15;85.26
75788;BME280;64406;50.024;14.492;2022-10-23T05:35:06;98299.63;;;8.10;85.41
75788;BME280;64406;50.024;14.492;2022-10-23T05:37:32;98308.22;;;8.07;85.81
75788;BME280;64406;50.024;14.492;2022-10-23T05:39:58;98299.09;;;8.08;85.99
75788;BME280;64406;50.024;14.492;2022-10-23T05:42:24;98305.28;;;8.08;85.10
75788;BME280;64406;50.024;14.492;2022-10-23T05:44:49;98306.88;;;8.09;85.40
75788;BME280;64406;50.024;14.492;2022-10-23T05:47:15;98312.50;;;8.08;85.83
75788;BME280;64406;50.024;14.492;2022-10-23T05:49:40;98313.28;;;8.03;86.38
75788;BME280;64406;50.024;14.492;2022-10-23T05:52:06;98307.94;;;8.08;86.45
75788;BME280;64406;50.024;14.492;2022-10-23T05:54:31;98314.91;;;8.04;86.45
75788;BME280;64406;50.024;14.492;2022-10-23T05:56:56;98311.41;;;8.04;86.69
75788;BME280;64406;50.024;14.492;2022-10-23T05:59:23;98312.16;;;7.94;87.25
75788;BME280;64406;50.024;14.492;2022-10-23T06:01:48;98311.69;;;8.02;86.84
75788;BME280;64406;50.024;14.492;2022-10-23T06:04:14;98319.47;;;8.04;86.75
75788;BME280;64406;50.024;14.492;2022-10-23T06:06:39;98314.66;;;8.06;86.52
75788;BME280;64406;50.024;14.492;2022-10-23T06:09:05;98318.16;;;8.06;86.90
75788;BME280;64406;50.024;14.492;2022-10-23T06:11:30;98310.41;;;8.15;87.27
75788;BME280;64406;50.024;14.492;2022-10-23T06:13:56;98306.66;;;8.16;87.34
75788;BME280;64406;50.024;14.492;2022-10-23T06:16:23;98314.22;;;8.29;86.54
75788;BME280;64406;50.024;14.492;2022-10-23T06:18:51;98315.56;;;8.32;86.73
75788;BME280;64406;50.024;14.492;2022-10-23T06:21:18;98314.31;;;8.39;86.70
75788;BME280;64406;50.024;14.492;2022-10-23T06:23:44;98313.84;;;8.53;86.92
75788;BME280;64406;50.024;14.492;2022-10-23T06:26:12;98325.63;;;8.52;86.25
75788;BME280;64406;50.024;14.492;2022-10-23T06:28:39;98333.97;;;8.55;85.75
75788;BME280;64406;50.024;14.492;2022-10-23T06:31:09;98336.94;;;8.59;86.03
75788;BME280;64406;50.024;14.492;2022-10-23T06:33:35;98339.34;;;8.55;85.75
75788;BME280;64406;50.024;14.492;2022-10-23T06:36:01;98332.34;;;8.54;85.91
75788;BME280;64406;50.024;14.492;2022-10-23T06:38:27;98327.81;;;8.60;85.91
75788;BME280;64406;50.024;14.492;2022-10-23T06:40:54;98338.00;;;8.58;85.57
75788;BME280;64406;50.024;14.492;2022-10-23T06:43:20;98349.56;;;8.63;86.35
75788;BME280;64406;50.024;14.492;2022-10-23T06:45:46;98342.38;;;8.74;86.05
75788;BME280;64406;50.024;14.492;2022-10-23T06:48:11;98346.69;;;8.90;85.33
75788;BME280;64406;50.024;14.492;2022-10-23T06:50:37;98352.38;;;9.04;84.78
75788;BME280;64406;50.024;14.492;2022-10-23T06:53:04;98345.41;;;9.13;84.73
75788;BME280;64406;50.024;14.492;2022-10-23T06:55:30;98352.13;;;9.16;84.58
75788;BME280;64406;50.024;14.492;2022-10-23T06:57:56;98358.31;;;9.21;84.05
75788;BME280;64406;50.024;14.492;2022-10-23T07:00:22;98366.94;;;9.29;83.86
75788;BME280;64406;50.024;14.492;2022-10-23T07:02:48;98363.22;;;9.45;83.41
75788;BME280;64406;50.024;14.492;2022-10-23T07:05:14;98365.38;;;9.58;83.46
75788;BME280;64406;50.024;14.492;2022-10-23T07:07:39;98369.63;;;10.25;80.71
75788;BME280;64406;50.024;14.492;2022-10-23T07:10:05;98361.16;;;10.62;78.73
75788;BME280;64406;50.024;14.492;2022-10-23T07:12:30;98358.97;;;10.75;78.16
75788;BME280;64406;50.024;14.492;2022-10-23T07:14:56;98353.28;;;10.81;78.34
75788;BME280;64406;50.024;14.492;2022-10-23T07:17:21;98362.00;;;10.53;79.14
75788;BME280;64406;50.024;14.492;2022-10-23T07:19:47;98346.97;;;10.42;80.37
75788;BME280;64406;50.024;14.492;2022-10-23T07:22:12;98355.84;;;10.42;79.96
75788;BME280;64406;50.024;14.492;2022-10-23T07:24:38;98348.63;;;10.32;80.08
75788;BME280;64406;50.024;14.492;2022-10-23T07:27:04;98356.69;;;10.32;80.83
75788;BME280;64406;50.024;14.492;2022-10-23T07:29:31;98354.53;;;10.34;80.40
75788;BME280;64406;50.024;14.492;2022-10-23T07:31:57;98353.13;;;10.52;79.85
75788;BME280;64406;50.024;14.492;2022-10-23T07:34:25;98343.88;;;10.79;79.24
75788;BME280;64406;50.024;14.492;2022-10-23T07:36:51;98344.41;;;10.76;78.90
75788;BME280;64406;50.024;14.492;2022-10-23T07:39:19;98339.50;;;10.88;78.68
75788;BME280;64406;50.024;14.492;2022-10-23T07:41:46;98345.94;;;10.97;79.13
75788;BME280;64406;50.024;14.492;2022-10-23T07:44:12;98343.28;;;10.87;79.19
75788;BME280;64406;50.024;14.492;2022-10-23T07:46:38;98338.16;;;10.85;78.53
75788;BME280;64406;50.024;14.492;2022-10-23T07:49:03;98339.50;;;10.88;78.74
75788;BME280;64406;50.024;14.492;2022-10-23T07:51:28;98342.75;;;10.85;79.36
75788;BME280;64406;50.024;14.492;2022-10-23T07:53:54;98338.66;;;10.93;78.46
75788;BME280;64406;50.024;14.492;2022-10-23T07:56:22;98342.38;;;11.02;78.82
75788;BME280;64406;50.024;14.492;2022-10-23T07:58:49;98338.03;;;11.11;78.48
75788;BME280;64406;50.024;14.492;2022-10-23T08:01:41;98336.91;;;11.17;78.43
75788;BME280;64406;50.024;14.492;2022-10-23T08:04:08;98333.91;;;11.24;78.66
75788;BME280;64406;50.024;14.492;2022-10-23T08:06:34;98332.47;;;11.36;78.30
75788;BME280;64406;50.024;14.492;2022-10-23T08:08:59;98345.16;;;11.36;77.46
75788;BME280;64406;50.024;14.492;2022-10-23T08:11:25;98345.66;;;11.43;77.84
75788;BME280;64406;50.024;14.492;2022-10-23T08:13:55;98340.97;;;11.54;77.75
75788;BME280;64406;50.024;14.492;2022-10-23T08:16:21;98347.63;;;11.61;76.79
75788;BME280;64406;50.024;14.492;2022-10-23T08:18:47;98343.09;;;11.57;76.96
75788;BME280;64406;50.024;14.492;2022-10-23T08:21:14;98342.22;;;11.66;76.54
75788;BME280;64406;50.024;14.492;2022-10-23T08:23:40;98335.13;;;11.76;76.96
75788;BME280;64406;50.024;14.492;2022-10-23T08:26:07;98332.94;;;11.83;76.43
75788;BME280;64406;50.024;14.492;2022-10-23T08:28:32;98334.50;;;11.89;75.78
75788;BME280;64406;50.024;14.492;2022-10-23T08:31:08;98335.19;;;12.00;75.81
75788;BME280;64406;50.024;14.492;2022-10-23T08:33:34;98342.00;;;12.21;74.45
75788;BME280;64406;50.024;14.492;2022-10-23T08:35:59;98338.44;;;12.25;74.85
75788;BME280;64406;50.024;14.492;2022-10-23T08:38:25;98341.56;;;12.38;73.70
75788;BME280;64406;50.024;14.492;2022-10-23T08:40:50;98344.75;;;12.40;74.75
75788;BME280;64406;50.024;14.492;2022-10-23T08:45:59;98335.47;;;12.51;74.22
75788;BME280;64406;50.024;14.492;2022-10-23T08:48:50;98333.59;;;12.70;74.32
75788;BME280;64406;50.024;14.492;2022-10-23T08:51:26;98334.56;;;12.79;73.06
75788;BME280;64406;50.024;14.492;2022-10-23T08:53:58;98326.81;;;12.92;73.54
75788;BME280;64406;50.024;14.492;2022-10-23T08:56:40;98322.97;;;12.98;73.08
75788;BME280;64406;50.024;14.492;2022-10-23T08:59:12;98321.66;;;13.14;72.82
75788;BME280;64406;50.024;14.492;2022-10-23T09:02:04;98326.06;;;13.29;71.66
75788;BME280;64406;50.024;14.492;2022-10-23T09:04:35;98316.25;;;13.33;71.21
75788;BME280;64406;50.024;14.492;2022-10-23T09:12:41;98308.38;;;13.69;70.44
75788;BME280;64406;50.024;14.492;2022-10-23T09:15:23;98310.47;;;13.72;69.83
75788;BME280;64406;50.024;14.492;2022-10-23T09:18:00;98313.44;;;13.90;69.20
75788;BME280;64406;50.024;14.492;2022-10-23T09:20:33;98303.31;;;13.95;68.79
75788;BME280;64406;50.024;14.492;2022-10-23T09:23:20;98305.25;;;14.08;68.79
75788;BME280;64406;50.024;14.492;2022-10-23T09:25:47;98296.72;;;14.15;68.62
75788;BME280;64406;50.024;14.492;2022-10-23T09:28:22;98297.31;;;14.12;68.47
75788;BME280;64406;50.024;14.492;2022-10-23T09:30:49;98297.31;;;14.12;68.68
75788;BME280;64406;50.024;14.492;2022-10-23T09:33:17;98294.31;;;14.27;68.33
75788;BME280;64406;50.024;14.492;2022-10-23T09:38:33;98302.78;;;14.53;67.67
75788;BME280;64406;50.024;14.492;2022-10-23T09:41:01;98299.34;;;14.61;67.20
75788;BME280;64406;50.024;14.492;2022-10-23T09:43:28;98314.19;;;14.64;67.34
75788;BME280;64406;50.024;14.492;2022-10-23T09:46:01;98307.16;;;14.77;66.45
75788;BME280;64406;50.024;14.492;2022-10-23T09:48:29;98306.66;;;14.88;66.54
75788;BME280;64406;50.024;14.492;2022-10-23T09:50:59;98317.06;;;14.95;65.65
75788;BME280;64406;50.024;14.492;2022-10-23T09:55:52;98318.25;;;15.03;64.67
75788;BME280;64406;50.024;14.492;2022-10-23T09:58:28;98323.06;;;15.19;64.49
75788;BME280;64406;50.024;14.492;2022-10-23T10:00:54;98309.28;;;15.38;63.52
75788;BME280;64406;50.024;14.492;2022-10-23T10:03:21;98314.91;;;15.42;63.67
75788;BME280;64406;50.024;14.492;2022-10-23T10:06:20;98308.00;;;15.58;64.40
75788;BME280;64406;50.024;14.492;2022-10-23T10:08:49;98311.34;;;15.55;64.00
75788;BME280;64406;50.024;14.492;2022-10-23T10:16:31;98300.56;;;15.86;62.88
75788;BME280;64406;50.024;14.492;2022-10-23T10:21:38;98297.31;;;15.84;62.55
75788;BME280;64406;50.024;14.492;2022-10-23T10:27:13;98293.34;;;16.13;64.18
75788;BME280;64406;50.024;14.492;2022-10-23T10:30:23;98284.22;;;16.17;63.96
75788;BME280;64406;50.024;14.492;2022-10-23T10:41:40;98276.22;;;16.12;64.96
75788;BME280;64406;50.024;14.492;2022-10-23T10:44:42;98272.97;;;16.01;64.97
75788;BME280;64406;50.024;14.492;2022-10-23T10:52:46;98259.00;;;15.86;65.35
75788;BME280;64406;50.024;14.492;2022-10-23T10:55:22;98254.06;;;15.88;65.58
75788;BME280;64406;50.024;14.492;2022-10-23T10:57:56;98246.59;;;15.71;65.39
75788;BME280;64406;50.024;14.492;2022-10-23T11:00:23;98241.34;;;15.66;66.08
75788;BME280;64406;50.024;14.492;2022-10-23T11:03:11;98231.16;;;15.58;65.56
75788;BME280;64406;50.024;14.492;2022-10-23T11:05:46;98235.94;;;15.52;66.48
75788;BME280;64406;50.024;14.492;2022-10-23T11:08:37;98233.09;;;15.57;66.24
75788;BME280;64406;50.024;14.492;2022-10-23T11:11:39;98234.53;;;15.55;65.83
75788;BME280;64406;50.024;14.492;2022-10-23T11:14:12;98229.47;;;15.39;66.05
75788;BME280;64406;50.024;14.492;2022-10-23T11:16:39;98218.88;;;15.29;66.21
75788;BME280;64406;50.024;14.492;2022-10-23T11:19:53;98216.09;;;15.20;66.84
75788;BME280;64406;50.024;14.492;2022-10-23T11:22:30;98213.44;;;15.29;66.60
75788;BME280;64406;50.024;14.492;2022-10-23T11:39:14;98200.22;;;15.36;66.43
75788;BME280;64406;50.024;14.492;2022-10-23T11:41:49;98187.09;;;15.30;67.22
75788;BME280;64406;50.024;14.492;2022-10-23T11:44:40;98184.75;;;15.37;66.51
75788;BME280;64406;50.024;14.492;2022-10-23T11:49:49;98190.72;;;15.47;65.73
75788;BME280;64406;50.024;14.492;2022-10-23T11:52:23;98181.16;;;15.50;66.24
75788;BME280;64406;50.024;14.492;2022-10-23T11:55:21;98177.63;;;15.49;66.22
75788;BME280;64406;50.024;14.492;2022-10-23T12:00:30;98178.72;;;15.40;66.76
75788;BME280;64406;50.024;14.492;2022-10-23T12:02:57;98170.22;;;15.33;67.15
75788;BME280;64406;50.024;14.492;2022-10-23T12:05:29;98162.72;;;15.38;67.27
75788;BME280;64406;50.024;14.492;2022-10-23T12:07:58;98173.09;;;15.36;67.56
75788;BME280;64406;50.024;14.492;2022-10-23T12:10:30;98163.78;;;15.29;67.99
75788;BME280;64406;50.024;14.492;2022-10-23T12:12:59;98165.69;;;15.28;67.36
75788;BME280;64406;50.024;14.492;2022-10-23T12:15:26;98160.63;;;15.35;67.90
75788;BME280;64406;50.024;14.492;2022-10-23T12:17:53;98147.72;;;15.41;68.36
75788;BME280;64406;50.024;14.492;2022-10-23T12:20:35;98150.69;;;15.31;68.16
75788;BME280;64406;50.024;14.492;2022-10-23T12:23:14;98145.44;;;15.26;68.26
75788;BME280;64406;50.024;14.492;2022-10-23T12:28:35;98144.44;;;15.21;69.05
75788;BME280;64406;50.024;14.492;2022-10-23T12:33:49;98128.13;;;15.13;69.42
75788;BME280;64406;50.024;14.492;2022-10-23T12:36:42;98134.94;;;15.10;69.69
75788;BME280;64406;50.024;14.492;2022-10-23T12:39:25;98109.91;;;15.13;69.91
75788;BME280;64406;50.024;14.492;2022-10-23T12:41:51;98113.56;;;15.09;69.83
75788;BME280;64406;50.024;14.492;2022-10-23T12:44:17;98106.34;;;15.04;70.27
75788;BME280;64406;50.024;14.492;2022-10-23T12:46:46;98109.72;;;15.10;69.69
75788;BME280;64406;50.024;14.492;2022-10-23T12:49:18;98109.56;;;15.06;70.55
75788;BME280;64406;50.024;14.492;2022-10-23T12:51:44;98101.03;;;15.21;69.64
75788;BME280;64406;50.024;14.492;2022-10-23T12:54:16;98092.75;;;15.27;69.85
75788;BME280;64406;50.024;14.492;2022-10-23T12:56:42;98090.19;;;15.30;69.55
75788;BME280;64406;50.024;14.492;2022-10-23T12:59:17;98092.81;;;15.44;69.52
75788;BME280;64406;50.024;14.492;2022-10-23T13:01:43;98082.44;;;15.46;69.62
75788;BME280;64406;50.024;14.492;2022-10-23T13:06:35;98085.44;;;15.84;68.63
75788;BME280;64406;50.024;14.492;2022-10-23T13:09:02;98079.09;;;15.97;68.65
75788;BME280;64406;50.024;14.492;2022-10-23T13:11:29;98081.03;;;16.23;67.18
75788;BME280;64406;50.024;14.492;2022-10-23T13:13:56;98083.28;;;16.38;67.39
75788;BME280;64406;50.024;14.492;2022-10-23T13:16:23;98088.41;;;16.48;67.06
75788;BME280;64406;50.024;14.492;2022-10-23T13:18:49;98073.53;;;16.54;66.59
75788;BME280;64406;50.024;14.492;2022-10-23T13:21:23;98074.78;;;16.66;66.29
75788;BME280;64406;50.024;14.492;2022-10-23T13:23:50;98075.94;;;16.73;66.64
75788;BME280;64406;50.024;14.492;2022-10-23T13:28:48;98080.19;;;17.00;66.30
75788;BME280;64406;50.024;14.492;2022-10-23T13:33:42;98072.75;;;17.65;63.92
75788;BME280;64406;50.024;14.492;2022-10-23T13:38:36;98065.19;;;18.00;62.90
75788;BME280;64406;50.024;14.492;2022-10-23T13:41:04;98060.16;;;18.11;62.58
75788;BME280;64406;50.024;14.492;2022-10-23T13:43:31;98061.59;;;18.08;62.61
75788;BME280;64406;50.024;14.492;2022-10-23T13:45:57;98064.47;;;18.12;62.63
75788;BME280;64406;50.024;14.492;2022-10-23T13:48:24;98065.34;;;18.04;62.91
75788;BME280;64406;50.024;14.492;2022-10-23T13:50:50;98073.63;;;18.07;63.27
75788;BME280;64406;50.024;14.492;2022-10-23T13:53:15;98079.78;;;18.25;62.97
75788;BME280;64406;50.024;14.492;2022-10-23T13:55:46;98072.25;;;18.22;62.71
75788;BME280;64406;50.024;14.492;2022-10-23T13:58:13;98064.00;;;18.10;63.80
75788;BME280;64406;50.024;14.492;2022-10-23T14:00:39;98067.81;;;17.88;64.10
75788;BME280;64406;50.024;14.492;2022-10-23T14:03:07;98064.97;;;17.84;64.61
75788;BME280;64406;50.024;14.492;2022-10-23T14:05:33;98059.94;;;17.65;65.29
75788;BME280;64406;50.024;14.492;2022-10-23T14:07:59;98074.75;;;17.47;65.68
75788;BME280;64406;50.024;14.492;2022-10-23T14:10:24;98065.31;;;17.45;66.03
75788;BME280;64406;50.024;14.492;2022-10-23T14:12:50;98059.06;;;17.44;65.91
75788;BME280;64406;50.024;14.492;2022-10-23T14:15:19;98051.94;;;17.31;66.72
75788;BME280;64406;50.024;14.492;2022-10-23T14:17:44;98045.38;;;17.23;66.82
75788;BME280;64406;50.024;14.492;2022-10-23T14:20:10;98037.69;;;17.25;66.67
75788;BME280;64406;50.024;14.492;2022-10-23T14:22:36;98034.09;;;17.04;67.60
75788;BME280;64406;50.024;14.492;2022-10-23T14:25:02;98028.66;;;17.04;67.76
75788;BME280;64406;50.024;14.492;2022-10-23T14:27:28;98027.31;;;17.19;67.42
75788;BME280;64406;50.024;14.492;2022-10-23T14:29:54;98038.81;;;17.24;67.27
75788;BME280;64406;50.024;14.492;2022-10-23T14:32:20;98037.66;;;17.34;66.98
75788;BME280;64406;50.024;14.492;2022-10-23T14:34:49;98041.06;;;17.22;67.42
75788;BME280;64406;50.024;14.492;2022-10-23T14:37:15;98037.88;;;17.20;67.29
75788;BME280;64406;50.024;14.492;2022-10-23T14:39:42;98041.09;;;17.13;67.80
75788;BME280;64406;50.024;14.492;2022-10-23T14:42:07;98046.28;;;16.98;68.26
75788;BME280;64406;50.024;14.492;2022-10-23T14:44:33;98043.44;;;16.85;68.64